Time;durP1;ratioP1;P1;durP2;ratioP2;P2;SDS_P1;SDS_P2;PMS_P1;PMS_P2;Temp;Humidity;BMP_temperature;BMP_pressure;BME280_temperature;BME280_humidity;BME280_pressure;Samples;Min_cycle;Max_cycle;Signal;HPM_P1;HPM_P2
2023/06/23 00:01:17;;;;;;;6.87;6.27;;;;;;;;;;5003633;28;20462;-84
2023/06/23 00:06:27;;;;;;;7.63;6.93;;;;;;;;;;5172153;22;20454;-88
2023/06/23 00:08:57;;;;;;;7.03;6.53;;;;;;;;;;5023239;28;20576;-84
2023/06/23 00:11:25;;;;;;;7.60;6.80;;;;;;;;;;5303646;22;20469;-85
2023/06/23 00:13:52;;;;;;;6.80;6.30;;;;;;;;;;5581947;22;20477;-88
2023/06/23 00:16:20;;;;;;;11.47;7.00;;;;;;;;;;5263984;22;21458;-87
2023/06/23 00:21:19;;;;;;;7.93;7.33;;;;;;;;;;5275276;23;20460;-85
2023/06/23 00:26:29;;;;;;;7.90;7.30;;;;;;;;;;5314256;22;21436;-85
2023/06/23 00:28:57;;;;;;;8.87;7.03;;;;;;;;;;4999399;28;20534;-84
2023/06/23 00:31:24;;;;;;;7.60;7.00;;;;;;;;;;5221093;22;20481;-90
2023/06/23 00:33:52;;;;;;;7.43;6.80;;;;;;;;;;5048010;28;20537;-87
2023/06/23 00:36:19;;;;;;;8.20;7.40;;;;;;;;;;5364966;22;20502;-86
2023/06/23 00:38:47;;;;;;;8.17;7.47;;;;;;;;;;5003108;28;20409;-80
2023/06/23 00:41:14;;;;;;;7.70;7.13;;;;;;;;;;5013261;28;20492;-84
2023/06/23 00:43:49;;;;;;;8.10;7.40;;;;;;;;;;5018227;28;20501;-83
2023/06/23 00:46:20;;;;;;;8.23;7.53;;;;;;;;;;5008655;28;20478;-87
2023/06/23 00:48:48;;;;;;;8.27;7.47;;;;;;;;;;4995564;28;20413;-86
2023/06/23 00:51:16;;;;;;;7.70;7.10;;;;;;;;;;4995803;28;20435;-83
2023/06/23 00:53:48;;;;;;;9.83;7.90;;;;;;;;;;5020821;28;20421;-84
2023/06/23 00:56:17;;;;;;;8.47;7.77;;;;;;;;;;4998237;28;20449;-86
2023/06/23 00:58:44;;;;;;;9.07;8.37;;;;;;;;;;5014261;28;20443;-81
2023/06/23 01:01:12;;;;;;;8.80;8.00;;;;;;;;;;5002329;28;20449;-85
2023/06/23 01:03:40;;;;;;;10.13;8.70;;;;;;;;;;5015594;28;20428;-89
2023/06/23 01:06:12;;;;;;;8.43;7.63;;;;;;;;;;4990700;28;20426;-87
2023/06/23 01:08:52;;;;;;;8.73;7.87;;;;;;;;;;5012736;28;20472;-82
2023/06/23 01:11:22;;;;;;;7.93;7.20;;;;;;;;;;4989281;28;20410;-80
2023/06/23 01:13:55;;;;;;;8.70;8.00;;;;;;;;;;5013318;28;20414;-86
2023/06/23 01:16:29;;;;;;;8.50;7.90;;;;;;;;;;5016398;28;20452;-86
2023/06/23 01:19:01;;;;;;;12.53;8.60;;;;;;;;;;5014828;28;20439;-84
2023/06/23 01:21:40;;;;;;;8.83;8.07;;;;;;;;;;5023944;28;20433;-88
2023/06/23 01:24:15;;;;;;;9.00;8.20;;;;;;;;;;5014155;28;20429;-85
2023/06/23 01:26:58;;;;;;;9.17;8.37;;;;;;;;;;5020730;28;20416;-83
2023/06/23 01:29:28;;;;;;;8.40;7.70;;;;;;;;;;5025473;28;20488;-83
2023/06/23 01:34:43;;;;;;;9.30;8.57;;;;;;;;;;5158181;22;20482;-85
2023/06/23 01:37:18;;;;;;;9.30;8.40;;;;;;;;;;5397883;22;22172;-87
2023/06/23 01:39:49;;;;;;;9.03;8.20;;;;;;;;;;5416939;22;20568;-88
2023/06/23 01:42:17;;;;;;;9.40;8.33;;;;;;;;;;5011411;28;20919;-87
2023/06/23 01:44:48;;;;;;;9.83;8.90;;;;;;;;;;5012997;28;20444;-83
2023/06/23 01:47:18;;;;;;;10.13;9.17;;;;;;;;;;5024151;28;20430;-86
2023/06/23 01:49:47;;;;;;;10.53;8.70;;;;;;;;;;5013940;28;20443;-80
2023/06/23 01:52:15;;;;;;;10.13;8.93;;;;;;;;;;5156095;22;20496;-83
2023/06/23 01:54:42;;;;;;;9.47;8.60;;;;;;;;;;5030293;28;20409;-84
2023/06/23 01:57:12;;;;;;;11.50;10.00;;;;;;;;;;5021513;28;20528;-84
2023/06/23 01:59:39;;;;;;;13.10;11.77;;;;;;;;;;5006769;28;20442;-88
2023/06/23 02:02:08;;;;;;;16.00;10.80;;;;;;;;;;5011002;28;20479;-85
2023/06/23 02:04:36;;;;;;;13.03;11.70;;;;;;;;;;5013811;28;20526;-84
2023/06/23 02:07:05;;;;;;;12.63;11.37;;;;;;;;;;5006409;28;20447;-88
2023/06/23 02:09:34;;;;;;;12.90;11.60;;;;;;;;;;5013515;28;20500;-85
2023/06/23 02:12:06;;;;;;;11.40;10.40;;;;;;;;;;5011058;28;20459;-86
2023/06/23 02:14:36;;;;;;;11.47;10.40;;;;;;;;;;5001035;28;20446;-86
2023/06/23 02:17:09;;;;;;;11.57;10.37;;;;;;;;;;5011604;28;20440;-86
2023/06/23 02:19:39;;;;;;;9.00;7.67;;;;;;;;;;5005641;28;20428;-86
2023/06/23 02:22:11;;;;;;;7.60;7.00;;;;;;;;;;4999780;28;20441;-89
2023/06/23 02:24:43;;;;;;;6.73;6.17;;;;;;;;;;5020521;28;20770;-85
2023/06/23 02:27:15;;;;;;;7.97;5.67;;;;;;;;;;4996246;28;20447;-86
2023/06/23 02:29:43;;;;;;;5.80;5.03;;;;;;;;;;5018356;23;20639;-86
2023/06/23 02:32:16;;;;;;;6.60;5.93;;;;;;;;;;5002138;28;20439;-88
2023/06/23 02:34:48;;;;;;;5.97;5.47;;;;;;;;;;4998676;28;20611;-84
2023/06/23 02:40:02;;;;;;;6.00;5.50;;;;;;;;;;5321754;22;20539;-86
2023/06/23 02:42:36;;;;;;;6.90;6.30;;;;;;;;;;5009410;28;20566;-81
2023/06/23 02:45:06;;;;;;;5.60;5.20;;;;;;;;;;5006774;28;20467;-86
2023/06/23 02:47:36;;;;;;;7.23;4.87;;;;;;;;;;5010764;28;20437;-85
2023/06/23 02:50:05;;;;;;;5.83;5.30;;;;;;;;;;5004959;28;20451;-87
2023/06/23 02:52:38;;;;;;;6.37;5.77;;;;;;;;;;5017901;28;20435;-87
2023/06/23 02:55:10;;;;;;;4.97;4.67;;;;;;;;;;5095751;22;20517;-82
2023/06/23 02:57:37;;;;;;;6.07;5.60;;;;;;;;;;5574254;22;21546;-79
2023/06/23 03:00:12;;;;;;;5.70;5.30;;;;;;;;;;5541102;22;20734;-85
2023/06/23 03:02:42;;;;;;;6.13;5.50;;;;;;;;;;5095419;22;20605;-84
2023/06/23 03:05:10;;;;;;;6.10;5.50;;;;;;;;;;5010372;28;20447;-87
2023/06/23 03:07:38;;;;;;;6.13;5.63;;;;;;;;;;5020909;28;20434;-87
2023/06/23 03:10:06;;;;;;;6.93;6.43;;;;;;;;;;5156417;22;20506;-83
2023/06/23 03:12:33;;;;;;;5.73;5.33;;;;;;;;;;5049472;22;20486;-86
2023/06/23 03:15:01;;;;;;;7.10;5.23;;;;;;;;;;5004934;28;20451;-87
2023/06/23 03:28:36;;;;;;;6.60;5.80;;;;;;;;;;5001074;28;20479;-87
2023/06/23 03:31:08;;;;;;;6.67;6.07;;;;;;;;;;5001589;28;20443;-88
2023/06/23 03:33:38;;;;;;;6.73;6.23;;;;;;;;;;5020900;28;20450;-89
2023/06/23 03:36:12;;;;;;;6.13;5.60;;;;;;;;;;5005271;28;20472;-87
2023/06/23 03:38:43;;;;;;;6.90;6.13;;;;;;;;;;5006866;28;20447;-89
2023/06/23 03:41:11;;;;;;;8.07;7.23;;;;;;;;;;5003483;28;20436;-89
2023/06/23 03:43:53;;;;;;;8.93;6.57;;;;;;;;;;5009009;28;20418;-86
2023/06/23 03:46:25;;;;;;;7.47;6.13;;;;;;;;;;5304944;23;20449;-84
2023/06/23 03:48:56;;;;;;;11.20;7.60;;;;;;;;;;5022221;28;20422;-88
2023/06/23 03:51:25;;;;;;;7.00;6.40;;;;;;;;;;5027267;28;20424;-89
2023/06/23 03:53:52;;;;;;;8.50;6.87;;;;;;;;;;5019668;28;20453;-91
2023/06/23 03:56:21;;;;;;;6.53;6.00;;;;;;;;;;5020442;28;20462;-88
2023/06/23 03:58:49;;;;;;;8.03;6.37;;;;;;;;;;5014524;28;20425;-86
2023/06/23 04:01:19;;;;;;;7.67;6.87;;;;;;;;;;5019388;28;20450;-88
2023/06/23 04:03:50;;;;;;;8.70;7.17;;;;;;;;;;5021703;28;20527;-89
2023/06/23 04:06:20;;;;;;;10.47;7.60;;;;;;;;;;5021921;28;20447;-86
2023/06/23 04:14:13;;;;;;;9.50;8.70;;;;;;;;;;5649073;22;20487;-86
2023/06/23 04:19:21;;;;;;;10.87;9.83;;;;;;;;;;4893876;22;20496;-86
2023/06/23 04:24:38;;;;;;;11.57;10.37;;;;;;;;;;5301913;22;21220;-84
2023/06/23 04:27:07;;;;;;;9.37;8.57;;;;;;;;;;5120597;22;20413;-86
2023/06/23 04:29:36;;;;;;;10.07;9.20;;;;;;;;;;5010690;28;20456;-90
2023/06/23 04:32:09;;;;;;;12.37;10.40;;;;;;;;;;5008920;28;20434;-88
2023/06/23 04:34:38;;;;;;;12.40;11.10;;;;;;;;;;5013108;28;20766;-90
2023/06/23 04:37:10;;;;;;;12.30;11.00;;;;;;;;;;5238118;23;20482;-83
2023/06/23 04:39:45;;;;;;;19.17;12.50;;;;;;;;;;5172304;22;20478;-85
2023/06/23 04:42:16;;;;;;;12.37;11.10;;;;;;;;;;5289602;22;20509;-84
2023/06/23 04:44:48;;;;;;;12.93;11.83;;;;;;;;;;5068014;22;20504;-88
2023/06/23 04:47:20;;;;;;;13.43;10.80;;;;;;;;;;5016967;28;20456;-87
2023/06/23 05:00:42;;;;;;;13.83;12.53;;;;;;;;;;4978261;28;20410;-85
2023/06/23 05:03:12;;;;;;;12.77;11.57;;;;;;;;;;5017300;22;20427;-82
2023/06/23 05:05:41;;;;;;;14.57;13.17;;;;;;;;;;5163094;22;20822;-85
2023/06/23 05:08:12;;;;;;;17.10;15.50;;;;;;;;;;5139896;22;20482;-83
2023/06/23 05:10:40;;;;;;;15.60;14.00;;;;;;;;;;5006029;28;20452;-83
2023/06/23 05:13:08;;;;;;;15.57;13.97;;;;;;;;;;5003880;28;20450;-87
2023/06/23 05:15:36;;;;;;;14.70;13.27;;;;;;;;;;5004133;28;20447;-87
2023/06/23 05:18:05;;;;;;;17.43;15.73;;;;;;;;;;5006058;28;20479;-86
2023/06/23 05:20:35;;;;;;;16.63;15.03;;;;;;;;;;5008616;28;20471;-87
2023/06/23 05:23:05;;;;;;;17.57;14.83;;;;;;;;;;4999860;28;20422;-86
2023/06/23 05:25:33;;;;;;;19.60;14.40;;;;;;;;;;5012837;28;20437;-83
2023/06/23 05:28:03;;;;;;;20.93;18.70;;;;;;;;;;5008329;28;20624;-84
2023/06/23 05:30:31;;;;;;;16.70;15.07;;;;;;;;;;5000870;28;20494;-86
2023/06/23 06:29:46;;;;;;;17.80;15.60;;;;;;;;;;5856343;23;20457;-86
2023/06/23 06:40:25;;;;;;;14.17;12.87;;;;;;;;;;5201937;23;20357;-85
2023/06/23 06:42:55;;;;;;;13.80;12.60;;;;;;;;;;5068367;23;20473;-89
2023/06/23 06:45:29;;;;;;;13.87;12.67;;;;;;;;;;5134031;22;20710;-86
2023/06/23 06:48:01;;;;;;;14.83;12.30;;;;;;;;;;5010445;28;20477;-84
2023/06/23 06:50:31;;;;;;;13.77;12.53;;;;;;;;;;5024340;28;20455;-87
2023/06/23 06:52:59;;;;;;;14.57;13.17;;;;;;;;;;5016154;28;20443;-86
2023/06/23 06:55:27;;;;;;;12.50;11.30;;;;;;;;;;5014060;28;20469;-91
2023/06/23 06:58:07;;;;;;;11.10;9.53;;;;;;;;;;5018644;28;20482;-88
2023/06/23 07:00:41;;;;;;;16.17;10.20;;;;;;;;;;5023906;28;20446;-89
2023/06/23 07:03:25;;;;;;;14.90;9.60;;;;;;;;;;5014301;28;20544;-86
2023/06/23 07:05:53;;;;;;;10.40;9.50;;;;;;;;;;5025276;28;20428;-88
2023/06/23 07:08:28;;;;;;;9.27;8.07;;;;;;;;;;5011849;28;20430;-85
2023/06/23 07:10:56;;;;;;;7.80;7.20;;;;;;;;;;5031828;28;20429;-85
2023/06/23 07:13:24;;;;;;;9.13;7.80;;;;;;;;;;5029356;28;20447;-87
2023/06/23 07:15:55;;;;;;;12.70;7.00;;;;;;;;;;5131192;23;20746;-85
2023/06/23 07:18:24;;;;;;;11.00;6.70;;;;;;;;;;4995283;28;20555;-83
2023/06/23 07:20:54;;;;;;;10.90;7.30;;;;;;;;;;5224370;23;20493;-85
2023/06/23 07:23:25;;;;;;;9.73;6.90;;;;;;;;;;5011414;28;20816;-86
2023/06/23 07:25:55;;;;;;;10.20;6.07;;;;;;;;;;5012063;28;20922;-86
2023/06/23 07:28:25;;;;;;;15.20;7.87;;;;;;;;;;5161797;22;20494;-88
2023/06/23 07:30:55;;;;;;;7.70;7.10;;;;;;;;;;5016904;28;20447;-87
2023/06/23 07:33:27;;;;;;;14.43;9.00;;;;;;;;;;5021754;28;20472;-87
2023/06/23 07:35:58;;;;;;;10.60;8.20;;;;;;;;;;5021823;28;20423;-85
2023/06/23 07:38:29;;;;;;;9.97;8.57;;;;;;;;;;5010718;28;20541;-89
2023/06/23 07:41:06;;;;;;;13.00;10.43;;;;;;;;;;5018881;28;21041;-87
2023/06/23 07:43:55;;;;;;;11.97;10.77;;;;;;;;;;5011926;28;20417;-84
2023/06/23 07:46:36;;;;;;;14.40;12.90;;;;;;;;;;5007007;28;20435;-85
2023/06/23 07:49:08;;;;;;;13.90;12.60;;;;;;;;;;5011868;28;20450;-88
2023/06/23 07:51:35;;;;;;;15.73;13.90;;;;;;;;;;5235186;23;20478;-87
2023/06/23 07:54:10;;;;;;;15.70;13.93;;;;;;;;;;5014464;28;20501;-86
2023/06/23 07:57:07;;;;;;;17.30;13.90;;;;;;;;;;5021807;28;20564;-88
2023/06/23 07:59:49;;;;;;;15.43;13.80;;;;;;;;;;5010026;28;20450;-87
2023/06/23 08:02:20;;;;;;;14.90;13.50;;;;;;;;;;5012871;28;20467;-88
2023/06/23 08:04:47;;;;;;;15.70;14.30;;;;;;;;;;5014168;28;20505;-85
2023/06/23 08:07:15;;;;;;;16.67;15.10;;;;;;;;;;5021141;28;20455;-86
2023/06/23 08:09:44;;;;;;;16.23;14.83;;;;;;;;;;5018113;28;20657;-86
2023/06/23 08:12:11;;;;;;;16.70;15.03;;;;;;;;;;5022501;28;20503;-83
2023/06/23 08:14:50;;;;;;;19.10;14.40;;;;;;;;;;5027910;28;20547;-87
2023/06/23 08:17:23;;;;;;;19.33;15.97;;;;;;;;;;5147809;23;20526;-87
2023/06/23 08:19:57;;;;;;;17.13;14.87;;;;;;;;;;5024760;28;20636;-86
2023/06/23 08:22:24;;;;;;;14.37;12.93;;;;;;;;;;5143223;23;20498;-87
2023/06/23 08:24:55;;;;;;;16.80;15.07;;;;;;;;;;5013939;28;20459;-91
2023/06/23 08:30:07;;;;;;;14.03;12.93;;;;;;;;;;5178720;23;20487;-87
2023/06/23 08:32:38;;;;;;;17.13;15.30;;;;;;;;;;5005633;28;20490;-85
2023/06/23 08:35:06;;;;;;;15.23;13.83;;;;;;;;;;5130881;22;20498;-91
2023/06/23 08:37:40;;;;;;;14.30;12.90;;;;;;;;;;5027535;28;20466;-90
2023/06/23 08:40:22;;;;;;;16.00;14.57;;;;;;;;;;5027324;28;20421;-90
2023/06/23 08:42:53;;;;;;;16.40;14.80;;;;;;;;;;5023862;28;20583;-84
2023/06/23 08:45:28;;;;;;;13.77;12.67;;;;;;;;;;5155513;23;20501;-88
2023/06/23 08:48:03;;;;;;;13.63;12.43;;;;;;;;;;5015614;28;20682;-86
2023/06/23 08:50:35;;;;;;;15.57;12.90;;;;;;;;;;5026401;28;20526;-86
2023/06/23 08:53:05;;;;;;;14.33;12.87;;;;;;;;;;5029700;28;20461;-86
2023/06/23 08:55:33;;;;;;;14.97;13.57;;;;;;;;;;5200194;23;20510;-88
2023/06/23 08:58:02;;;;;;;14.17;12.87;;;;;;;;;;5008874;28;20554;-82
2023/06/23 09:00:31;;;;;;;12.67;11.33;;;;;;;;;;5021419;28;20549;-84
2023/06/23 09:02:58;;;;;;;14.57;13.17;;;;;;;;;;5186733;23;20513;-84
2023/06/23 09:05:28;;;;;;;13.70;12.23;;;;;;;;;;5029073;28;20448;-85
2023/06/23 09:08:00;;;;;;;13.17;12.03;;;;;;;;;;5211564;23;20570;-87
2023/06/23 09:10:27;;;;;;;12.87;11.77;;;;;;;;;;4988136;28;20452;-83
2023/06/23 09:13:14;;;;;;;14.07;12.87;;;;;;;;;;4999257;28;20451;-85
2023/06/23 09:15:47;;;;;;;14.37;13.17;;;;;;;;;;4989679;28;20456;-84
2023/06/23 09:18:32;;;;;;;16.00;14.60;;;;;;;;;;4988772;28;20452;-85
2023/06/23 09:21:02;;;;;;;14.80;13.37;;;;;;;;;;4994248;28;20697;-83
2023/06/23 09:23:31;;;;;;;15.27;13.60;;;;;;;;;;4990985;28;20512;-87
2023/06/23 09:26:08;;;;;;;14.77;13.30;;;;;;;;;;4994084;28;20452;-89
2023/06/23 09:28:39;;;;;;;22.23;12.33;;;;;;;;;;4998152;28;20427;-86
2023/06/23 09:31:09;;;;;;;13.17;11.87;;;;;;;;;;5001678;28;20576;-87
2023/06/23 09:34:00;;;;;;;13.23;11.57;;;;;;;;;;5008541;28;20432;-87
2023/06/23 09:36:33;;;;;;;12.07;10.90;;;;;;;;;;5000977;28;20455;-86
2023/06/23 09:39:03;;;;;;;13.67;12.50;;;;;;;;;;5004231;28;20479;-87
2023/06/23 09:41:32;;;;;;;11.40;10.40;;;;;;;;;;4993709;28;20451;-85
2023/06/23 09:44:19;;;;;;;12.67;11.40;;;;;;;;;;4999353;28;20468;-87
2023/06/23 09:46:59;;;;;;;12.70;11.50;;;;;;;;;;4994103;28;20455;-85
2023/06/23 09:49:41;;;;;;;15.23;11.93;;;;;;;;;;4999415;28;20455;-85
2023/06/23 09:52:12;;;;;;;12.47;11.20;;;;;;;;;;4998192;28;20479;-88
2023/06/23 09:54:40;;;;;;;12.33;11.23;;;;;;;;;;5004770;28;20471;-88
2023/06/23 09:57:19;;;;;;;12.90;11.67;;;;;;;;;;4995121;28;20488;-83
2023/06/23 09:59:49;;;;;;;12.10;10.97;;;;;;;;;;5004954;28;20470;-83
2023/06/23 10:02:26;;;;;;;18.67;9.90;;;;;;;;;;5005553;28;20469;-83
2023/06/23 10:08:04;;;;;;;10.97;10.07;;;;;;;;;;4854776;26;20813;-84
2023/06/23 10:10:33;;;;;;;11.37;10.40;;;;;;;;;;4993523;28;20432;-84
2023/06/23 10:13:01;;;;;;;14.17;10.40;;;;;;;;;;4998788;28;20523;-83
2023/06/23 10:15:32;;;;;;;11.60;10.70;;;;;;;;;;5012230;28;20538;-85
2023/06/23 10:18:03;;;;;;;11.07;9.97;;;;;;;;;;5006830;28;20502;-86
2023/06/23 10:20:37;;;;;;;11.63;10.40;;;;;;;;;;4989279;28;20479;-84
2023/06/23 10:23:09;;;;;;;11.20;10.10;;;;;;;;;;4988531;28;20479;-83
2023/06/23 10:25:45;;;;;;;9.60;8.70;;;;;;;;;;5000320;28;20442;-86
2023/06/23 10:28:13;;;;;;;10.93;9.90;;;;;;;;;;4997779;28;20502;-88
2023/06/23 10:30:46;;;;;;;10.17;9.20;;;;;;;;;;4974504;28;20482;-87
2023/06/23 10:33:16;;;;;;;11.07;8.80;;;;;;;;;;4993354;28;21039;-82
2023/06/23 10:35:53;;;;;;;13.27;8.87;;;;;;;;;;4993948;28;20427;-81
2023/06/23 10:38:27;;;;;;;10.13;9.27;;;;;;;;;;4993714;28;20523;-86
2023/06/23 10:40:59;;;;;;;12.13;9.80;;;;;;;;;;4995527;28;20436;-84
2023/06/23 10:43:33;;;;;;;9.20;8.30;;;;;;;;;;4989750;28;20452;-84
2023/06/23 10:46:03;;;;;;;9.87;8.93;;;;;;;;;;4987533;28;20539;-80
2023/06/23 10:48:30;;;;;;;9.57;8.40;;;;;;;;;;4988080;28;20548;-83
2023/06/23 10:50:58;;;;;;;9.20;8.40;;;;;;;;;;4997666;28;20455;-83
2023/06/23 10:53:32;;;;;;;8.03;7.33;;;;;;;;;;4990757;28;20567;-86
2023/06/23 10:56:01;;;;;;;11.97;8.40;;;;;;;;;;4988037;28;20435;-85
2023/06/23 10:58:49;;;;;;;8.70;8.00;;;;;;;;;;4981386;28;20482;-81
2023/06/23 11:01:22;;;;;;;9.50;8.23;;;;;;;;;;4993080;28;20479;-84
2023/06/23 11:03:52;;;;;;;8.73;7.93;;;;;;;;;;4992987;28;20446;-84
2023/06/23 11:06:34;;;;;;;9.90;7.40;;;;;;;;;;4994320;28;20491;-84
2023/06/23 11:09:03;;;;;;;9.27;8.47;;;;;;;;;;4996756;28;20735;-86
2023/06/23 11:11:34;;;;;;;8.97;8.23;;;;;;;;;;4995074;28;20455;-84
2023/06/23 11:14:02;;;;;;;9.40;8.43;;;;;;;;;;4997938;28;20471;-82
2023/06/23 11:16:31;;;;;;;9.50;8.60;;;;;;;;;;4992466;28;20446;-85
2023/06/23 11:18:58;;;;;;;8.77;7.97;;;;;;;;;;4999251;28;20545;-85
2023/06/23 11:21:28;;;;;;;9.37;8.43;;;;;;;;;;5000095;28;20456;-87
2023/06/23 11:24:11;;;;;;;10.33;9.20;;;;;;;;;;4989463;28;20455;-85
2023/06/23 11:26:51;;;;;;;10.57;9.57;;;;;;;;;;5001073;28;20456;-85
2023/06/23 11:29:21;;;;;;;9.87;8.90;;;;;;;;;;4991320;28;20440;-85
2023/06/23 11:32:08;;;;;;;9.43;8.63;;;;;;;;;;4998694;28;20547;-81
2023/06/23 11:34:50;;;;;;;9.13;8.33;;;;;;;;;;5008173;28;20790;-85
2023/06/23 11:37:18;;;;;;;9.73;8.73;;;;;;;;;;4994714;28;20422;-85
2023/06/23 11:39:52;;;;;;;8.93;8.20;;;;;;;;;;4994989;28;21038;-87
2023/06/23 11:42:20;;;;;;;10.73;7.67;;;;;;;;;;4996716;28;20501;-85
2023/06/23 11:44:48;;;;;;;9.53;8.27;;;;;;;;;;4994224;28;20479;-84
2023/06/23 11:47:16;;;;;;;10.50;9.57;;;;;;;;;;4984781;28;20437;-84
2023/06/23 11:49:44;;;;;;;9.73;8.83;;;;;;;;;;4998556;28;20475;-86
2023/06/23 11:52:12;;;;;;;10.23;8.60;;;;;;;;;;5000873;28;20456;-87
2023/06/23 11:54:44;;;;;;;10.63;9.77;;;;;;;;;;4986991;28;20856;-84
2023/06/23 11:57:12;;;;;;;9.77;8.97;;;;;;;;;;4991574;28;20402;-90
2023/06/23 11:59:42;;;;;;;11.23;9.97;;;;;;;;;;4990469;28;20683;-85
2023/06/23 12:02:10;;;;;;;14.50;12.00;;;;;;;;;;4993542;28;21054;-84
2023/06/23 12:04:39;;;;;;;14.60;10.87;;;;;;;;;;5000911;28;20444;-85
2023/06/23 12:07:10;;;;;;;12.30;10.63;;;;;;;;;;5002295;28;20823;-85
2023/06/23 12:09:39;;;;;;;9.90;8.43;;;;;;;;;;5002555;28;20530;-86
2023/06/23 12:12:08;;;;;;;9.70;8.80;;;;;;;;;;5000029;28;20511;-87
2023/06/23 12:14:44;;;;;;;13.03;9.80;;;;;;;;;;4998638;28;20581;-84
2023/06/23 12:17:13;;;;;;;9.53;8.67;;;;;;;;;;4996373;28;20452;-85
2023/06/23 12:19:43;;;;;;;9.07;8.30;;;;;;;;;;4999124;28;20482;-87
2023/06/23 12:22:18;;;;;;;13.63;9.93;;;;;;;;;;4996134;28;20439;-84
2023/06/23 12:24:47;;;;;;;10.10;9.20;;;;;;;;;;4995975;28;20455;-85
2023/06/23 12:27:14;;;;;;;10.50;8.43;;;;;;;;;;5004623;28;20462;-88
2023/06/23 12:29:42;;;;;;;9.70;8.90;;;;;;;;;;5002971;28;20503;-86
2023/06/23 12:32:10;;;;;;;10.50;9.50;;;;;;;;;;4998284;28;20439;-87
2023/06/23 12:34:44;;;;;;;9.67;8.77;;;;;;;;;;5019781;28;20443;-84
2023/06/23 12:37:14;;;;;;;10.60;9.70;;;;;;;;;;5004558;28;20447;-88
2023/06/23 12:39:54;;;;;;;15.17;10.27;;;;;;;;;;4993148;28;20522;-83
2023/06/23 12:42:25;;;;;;;9.87;8.97;;;;;;;;;;5000626;28;20435;-82
2023/06/23 12:44:58;;;;;;;9.43;8.47;;;;;;;;;;5011918;28;20557;-86
2023/06/23 12:47:47;;;;;;;10.50;9.50;;;;;;;;;;5108303;27;20556;-83
2023/06/23 12:50:15;;;;;;;9.73;8.70;;;;;;;;;;5091082;28;20435;-84
2023/06/23 12:53:01;;;;;;;9.87;8.97;;;;;;;;;;5071449;28;20444;-85
2023/06/23 12:55:28;;;;;;;13.50;10.57;;;;;;;;;;5072096;28;20492;-82
2023/06/23 12:57:56;;;;;;;11.07;9.40;;;;;;;;;;5088434;28;20479;-85
2023/06/23 13:00:24;;;;;;;9.30;8.40;;;;;;;;;;5084756;28;20609;-85
2023/06/23 13:02:52;;;;;;;12.40;9.87;;;;;;;;;;5082898;28;20418;-83
2023/06/23 13:05:20;;;;;;;13.27;12.13;;;;;;;;;;5079603;28;20518;-83
2023/06/23 13:07:48;;;;;;;10.40;9.50;;;;;;;;;;5088512;28;20452;-83
2023/06/23 13:10:15;;;;;;;12.13;8.63;;;;;;;;;;5085719;28;20395;-83
2023/06/23 13:12:42;;;;;;;11.80;10.50;;;;;;;;;;5085612;28;20444;-81
2023/06/23 13:15:12;;;;;;;9.70;9.00;;;;;;;;;;5094765;28;20489;-84
2023/06/23 13:17:43;;;;;;;13.63;8.40;;;;;;;;;;5091135;28;20424;-83
2023/06/23 13:20:11;;;;;;;9.90;9.00;;;;;;;;;;5081129;28;20452;-83
2023/06/23 13:22:41;;;;;;;9.70;8.90;;;;;;;;;;5086656;28;20538;-85
2023/06/23 13:25:09;;;;;;;10.63;9.50;;;;;;;;;;5092623;28;20418;-84
2023/06/23 13:27:36;;;;;;;9.70;8.90;;;;;;;;;;5085024;28;20472;-83
2023/06/23 13:30:04;;;;;;;9.53;8.67;;;;;;;;;;5093213;28;20484;-83
2023/06/23 13:32:33;;;;;;;16.53;8.90;;;;;;;;;;5060575;28;20410;-85
2023/06/23 13:35:01;;;;;;;12.00;8.83;;;;;;;;;;5084481;28;20527;-87
2023/06/23 13:37:28;;;;;;;10.57;9.47;;;;;;;;;;5088329;28;20445;-85
2023/06/23 13:39:56;;;;;;;9.60;8.80;;;;;;;;;;5078096;28;20444;-85
2023/06/23 13:42:23;;;;;;;10.83;9.53;;;;;;;;;;5078805;28;20422;-84
2023/06/23 13:44:51;;;;;;;9.83;8.83;;;;;;;;;;5092617;28;20451;-87
2023/06/23 13:47:18;;;;;;;11.07;9.97;;;;;;;;;;5099487;28;20481;-84
2023/06/23 13:49:46;;;;;;;11.13;10.03;;;;;;;;;;5089173;28;20447;-84
2023/06/23 13:52:16;;;;;;;12.13;9.43;;;;;;;;;;5082847;28;20440;-86
2023/06/23 13:54:44;;;;;;;10.33;9.13;;;;;;;;;;5083698;28;20713;-81
2023/06/23 13:57:12;;;;;;;10.60;9.50;;;;;;;;;;5070325;28;20449;-86
2023/06/23 13:59:41;;;;;;;11.20;10.07;;;;;;;;;;5052529;28;20829;-85
2023/06/23 14:02:09;;;;;;;11.27;10.17;;;;;;;;;;5071438;28;20422;-83
2023/06/23 14:04:37;;;;;;;12.90;10.00;;;;;;;;;;5069086;28;20677;-84
2023/06/23 14:07:05;;;;;;;15.77;11.20;;;;;;;;;;5074251;28;20562;-82
2023/06/23 14:09:34;;;;;;;10.27;9.27;;;;;;;;;;5071875;28;20435;-88
2023/06/23 14:12:04;;;;;;;10.60;9.57;;;;;;;;;;5070391;28;20443;-83
2023/06/23 14:14:32;;;;;;;10.17;9.20;;;;;;;;;;5063536;28;20508;-87
2023/06/23 14:17:01;;;;;;;11.47;10.37;;;;;;;;;;5070509;28;20444;-86
2023/06/23 14:19:28;;;;;;;20.07;11.27;;;;;;;;;;5062395;28;20462;-84
2023/06/23 14:21:56;;;;;;;12.03;10.83;;;;;;;;;;5063958;28;20596;-84
2023/06/23 14:24:23;;;;;;;11.77;10.57;;;;;;;;;;5059740;28;20461;-83
2023/06/23 14:26:51;;;;;;;11.20;10.23;;;;;;;;;;5073395;28;20514;-81
2023/06/23 14:29:18;;;;;;;14.63;11.73;;;;;;;;;;5067799;28;20503;-85
2023/06/23 14:31:46;;;;;;;12.30;11.10;;;;;;;;;;5084112;28;20462;-81
2023/06/23 14:34:14;;;;;;;13.70;12.17;;;;;;;;;;5062792;28;20470;-84
2023/06/23 14:36:41;;;;;;;14.40;13.10;;;;;;;;;;5071649;28;20790;-84
2023/06/23 14:39:12;;;;;;;16.90;11.67;;;;;;;;;;5064401;28;20491;-84
2023/06/23 14:41:40;;;;;;;12.93;11.73;;;;;;;;;;5057382;28;20696;-86
2023/06/23 14:44:07;;;;;;;12.57;10.70;;;;;;;;;;5064547;28;20441;-83
2023/06/23 14:46:35;;;;;;;13.53;12.20;;;;;;;;;;5060177;28;20536;-84
2023/06/23 14:49:03;;;;;;;13.00;10.87;;;;;;;;;;5060302;28;20439;-88
2023/06/23 14:51:31;;;;;;;13.23;11.93;;;;;;;;;;5069139;28;20451;-85
2023/06/23 14:54:00;;;;;;;7.13;6.53;;;;;;;;;;5070767;28;20463;-86
2023/06/23 14:56:30;;;;;;;6.60;6.00;;;;;;;;;;5067944;28;20765;-86
2023/06/23 14:59:00;;;;;;;4.50;4.10;;;;;;;;;;5066137;28;20473;-85
2023/06/23 15:01:30;;;;;;;5.77;4.50;;;;;;;;;;5071055;28;20420;-84
2023/06/23 15:03:58;;;;;;;3.60;3.30;;;;;;;;;;5067876;28;20512;-87
2023/06/23 15:06:25;;;;;;;3.80;3.60;;;;;;;;;;5072745;28;20492;-85
2023/06/23 15:08:54;;;;;;;3.60;3.30;;;;;;;;;;5072216;28;20487;-86
2023/06/23 15:11:22;;;;;;;5.73;4.27;;;;;;;;;;5068183;28;20432;-91
2023/06/23 15:13:50;;;;;;;5.03;4.10;;;;;;;;;;5073360;28;20459;-88
2023/06/23 15:16:17;;;;;;;5.03;4.43;;;;;;;;;;5069766;28;20518;-89
2023/06/23 15:18:45;;;;;;;3.90;3.60;;;;;;;;;;5078161;28;20629;-84
2023/06/23 15:21:13;;;;;;;6.53;4.80;;;;;;;;;;5074047;28;21011;-88
2023/06/23 15:23:40;;;;;;;5.63;4.93;;;;;;;;;;5071144;28;20491;-84
2023/06/23 15:26:08;;;;;;;6.60;6.00;;;;;;;;;;5198889;22;20463;-84
2023/06/23 15:28:36;;;;;;;6.90;6.30;;;;;;;;;;5074396;28;20414;-84
2023/06/23 15:31:03;;;;;;;6.70;6.00;;;;;;;;;;5074083;28;20436;-84
2023/06/23 15:33:31;;;;;;;8.90;5.87;;;;;;;;;;5069602;28;20416;-90
2023/06/23 15:35:59;;;;;;;7.70;6.60;;;;;;;;;;5218927;22;20489;-84
2023/06/23 15:38:26;;;;;;;6.23;5.63;;;;;;;;;;5078734;22;20555;-84
2023/06/23 15:40:56;;;;;;;6.00;5.60;;;;;;;;;;5044157;28;20742;-87
2023/06/23 15:43:23;;;;;;;8.63;6.17;;;;;;;;;;5043832;28;20422;-82
2023/06/23 15:45:51;;;;;;;6.80;6.10;;;;;;;;;;5050237;28;20446;-83
2023/06/23 15:48:19;;;;;;;6.93;6.30;;;;;;;;;;5046139;28;20453;-87
2023/06/23 15:50:51;;;;;;;6.97;6.27;;;;;;;;;;5114650;22;20495;-86
2023/06/23 15:53:18;;;;;;;5.90;5.50;;;;;;;;;;5063713;28;20437;-84
2023/06/23 15:55:46;;;;;;;6.67;6.10;;;;;;;;;;5056823;28;20521;-82
2023/06/23 15:58:15;;;;;;;9.90;7.17;;;;;;;;;;5063959;28;20870;-81
2023/06/23 16:00:43;;;;;;;6.30;5.70;;;;;;;;;;5053999;28;20446;-83
2023/06/23 16:03:12;;;;;;;9.63;6.30;;;;;;;;;;5058531;28;20430;-87
2023/06/23 16:05:42;;;;;;;7.27;6.57;;;;;;;;;;5056122;28;20427;-82
2023/06/23 16:08:13;;;;;;;11.10;8.90;;;;;;;;;;5215450;23;20469;-85
2023/06/23 16:10:40;;;;;;;11.47;6.20;;;;;;;;;;5070238;28;20464;-83
2023/06/23 16:13:10;;;;;;;6.80;6.30;;;;;;;;;;5424982;22;20447;-84
2023/06/23 16:15:37;;;;;;;5.93;5.53;;;;;;;;;;5048544;28;20428;-84
2023/06/23 16:18:09;;;;;;;6.33;5.83;;;;;;;;;;5045713;28;20517;-87
2023/06/23 16:20:39;;;;;;;6.80;6.20;;;;;;;;;;5045077;28;20589;-83
2023/06/23 16:23:07;;;;;;;6.33;5.73;;;;;;;;;;5041078;28;20642;-87
2023/06/23 16:25:36;;;;;;;5.97;5.47;;;;;;;;;;5041919;28;20457;-86
2023/06/23 16:28:04;;;;;;;5.83;5.33;;;;;;;;;;5039809;28;20521;-86
2023/06/23 16:30:33;;;;;;;6.93;6.17;;;;;;;;;;5040118;28;20762;-87
2023/06/23 16:33:02;;;;;;;12.07;6.77;;;;;;;;;;5043710;28;20495;-85
2023/06/23 16:35:29;;;;;;;9.27;6.93;;;;;;;;;;5041532;28;20814;-85
2023/06/23 16:37:57;;;;;;;11.77;8.30;;;;;;;;;;5043384;28;20428;-83
2023/06/23 16:40:26;;;;;;;13.87;8.00;;;;;;;;;;5043850;28;20492;-83
2023/06/23 16:42:54;;;;;;;7.13;6.57;;;;;;;;;;5040713;28;20453;-86
2023/06/23 16:45:24;;;;;;;9.27;7.30;;;;;;;;;;5038820;28;20436;-84
2023/06/23 16:47:54;;;;;;;8.23;7.40;;;;;;;;;;5038786;28;20484;-85